ENATENTC

Guest
Details From ENAT - ALTA
To ENTC - Tromso Langnes
Flight Number -
Tags generated
Created
Modified
Stats Distance 94 nm / 174 km
Max Altitude 4,800 ft / 1,463 m
Waypoints 3
Social Downloads 9
Likes 0
Share VATSIM

Download

Looking for another format? Having issues loading an existing format? Contact us
Advertisement - Login to hide

Notes

Basic altitude profile: - Ascent Rate: 2500ft/min - Ascent Speed: 250kts - Cruise Altitude: 35000ft - Cruise Speed: 420kts - Descent Rate: 1500ft/min - Descent Speed: 250kts Options: - Use NATs: yes - Use PACOTS: yes - Use low airways: yes - Use high airways: yes

Route

ENAT LENSA ENTC

ID Type Via Altitude Latitude Longitude Leg Dist Tot Dist Heading (true) Name
O ENAT APT - 0 ft / 0 m 69.97735˚ 23.36543˚ - 0 nm - ALTA
LENSA FIX - 4,800 ft / 1,463 m 69.73306˚ 20.00000˚ 71 nm 71 nm 260° / 257° -
O ENTC APT - 0 ft / 0 m 69.68287˚ 18.91936˚ 22 nm 93 nm 263° / 262° Tromso Langnes

Altitude Profile

Advertisement - Login to hide

ENAT

Details ICAO ENAT (ALF)
Name ALTA
Region Norway
Timezone Europe/Oslo (UTC+1.0)
Stats Elevation 9 ft / 3 m (AMSL)
Location 69.977351° 23.365433°
Runways 1
Magnetic Variation 11.443° E

METAR

ENAT 111250Z VRB04KT CAVOK M02/M08 Q0996 RMK WIND 700FT 19022KT

Decode

TAF

Not found

Departure Runways

ID Width Length Bearing (true) Bearing (mag) Surface Threshold Offset Overrun Length
11 131 ft / 40 m 7,140 ft / 2,176 m 121.18° 109.74° Asphalt 674 ft / 205 m 0 ft / 0 m
29 131 ft / 40 m 7,140 ft / 2,176 m 301.22° 289.78° Asphalt 418 ft / 127 m 0 ft / 0 m

ENTC

Details ICAO ENTC (TOS)
Name Tromso Langnes
Region Norway
Timezone Europe/Oslo (UTC+1.0)
Stats Elevation 31 ft / 9 m (AMSL)
Location 69.682866° 18.919363°
Runways 1
Magnetic Variation 8.796° E

METAR

ENTC 111320Z 20016KT 9999 BKN066 00/M05 Q0996 NOSIG RMK WIND 2600FT 20014KT

Decode

TAF

TAF ENTC 111100Z 1112/1212 20009KT CAVOK TEMPO 1115/1203 20019KT

Decode

Destination Runways

ID Width Length Bearing (true) Bearing (mag) Surface Threshold Offset Overrun Length
01 141 ft / 43 m 7,740 ft / 2,359 m 12.19° 3.39° Asphalt 0 ft / 0 m 289 ft / 88 m
19 141 ft / 43 m 7,740 ft / 2,359 m 192.21° 183.41° Asphalt 1,227 ft / 374 m 482 ft / 147 m

Approach Navaids

Runway Type Ident Frequency Range Bearing (true) Bearing (mag) Slope Elevation
01 Localiser TC 110.90 MHz 18 nm / 33 km 12.08° 3.29° - 56 ft / 17 m (AMSL)
01 Glidescope TC 110.90 MHz 10 nm / 19 km 12.20° 3.40° 4.00° 31 ft / 9 m (AMSL)
01 DME TC 110.90 MHz 18 nm / 33 km - - - 56 ft / 17 m (AMSL)
19 Localiser TR 109.90 MHz 18 nm / 33 km 193.28° 184.48° - 36 ft / 11 m (AMSL)
19 Glidescope TR 109.90 MHz 10 nm / 19 km 192.20° 183.40° 4.00° 31 ft / 9 m (AMSL)
19 DME TR 109.90 MHz 18 nm / 33 km - - - 36 ft / 11 m (AMSL)

Popular Alternatives